Latest Weather Observations for Newcastle Nobbys

IDN60801

Issued at 10:03 pm EST Saturday 25 June 2016 (issued every 30 minutes, with the page automatically refreshed every 10 minutes)

About weather observations | Map of weather stations | Latest weather observations for NSW | Other Formats
Station Details ID: 061055 Name: NEWCASTLE NOBBYS SIGNAL STATION AWS Lat: -32.92 Lon: 151.80 Height: 33.0 m
Data from the previous 72 hours. | See also: Recent months at Newcastle Nobbys
Date/Time
EST
Temp
°C
App
Temp
°C
Dew
Point
°C
Rel
Hum
%
Delta-T
°C
Wind Press
QNH
hPa
Press
MSL
hPa
Rain since
9am
mm
Dir  Spd
km/h
Gust
km/h
Spd
kts
Gust
kts
25/10:00pm 8.5 4.1 2.7 67 2.4 NW 15 19 8 10 - - 0.0
25/09:30pm 8.3 4.3 3.0 69 2.2 NW 13 15 7 8 - - 0.0
25/09:00pm 8.8 4.8 2.6 65 2.6 NW 13 15 7 8 - - 0.0
25/08:30pm 10.0 6.6 2.1 58 3.3 W 9 13 5 7 - - 0.0
25/08:00pm 11.6 7.6 0.7 47 4.5 WSW 11 19 6 10 - - 0.0
25/07:30pm 11.0 7.0 0.4 48 4.3 WSW 11 13 6 7 - - 0.0
25/07:00pm 11.4 7.8 0.8 48 4.4 WSW 9 13 5 7 - - 0.0
25/06:30pm 11.7 7.7 0.2 45 4.7 SW 11 15 6 8 - - 0.0
25/06:00pm 11.6 7.5 0.1 45 4.7 SW 11 15 6 8 - - 0.0
25/05:30pm 11.6 8.0 0.7 47 4.5 SW 9 15 5 8 - - 0.0
25/05:00pm 12.1 8.1 0.5 45 4.8 SW 11 20 6 11 - - 0.0
25/04:30pm 12.8 8.0 0.2 42 5.2 SW 15 24 8 13 - - 0.0
25/04:00pm 13.2 8.0 -0.1 40 5.5 SW 17 26 9 14 - - 0.0
25/03:30pm 13.4 8.1 -0.6 38 5.7 SW 17 24 9 13 - - 0.0
25/03:00pm 13.0 7.3 0.4 42 5.3 SW 20 33 11 18 - - 0.0
25/02:30pm 13.7 8.2 0.4 40 5.6 SW 19 32 10 17 - - 0.0
25/02:00pm 14.1 9.1 1.1 41 5.6 SW 17 32 9 17 - - 0.0
25/01:30pm 13.3 7.4 -1.1 37 5.8 SW 20 33 11 18 - - 0.0
25/01:00pm 13.1 7.4 0.5 42 5.3 SW 20 35 11 19 - - 0.0
25/12:30pm 12.9 7.0 -1.1 38 5.7 SW 20 33 11 18 - - 0.0
25/12:00pm 12.9 7.2 -0.7 39 5.5 WSW 19 32 10 17 - - 0.0
25/11:30am 12.3 5.5 -1.6 38 5.5 WSW 24 41 13 22 - - 0.0
25/11:00am 12.0 5.3 -0.8 41 5.2 WSW 24 39 13 21 - - 0.0
25/10:30am 12.1 5.1 -0.7 41 5.2 W 26 35 14 19 - - 0.0
25/10:00am 11.5 4.2 0.3 46 4.6 W 28 37 15 20 - - 0.0
25/09:30am 10.7 3.5 0.7 50 4.1 WNW 28 37 15 20 - - 0.0
25/09:00am 9.3 2.1 0.5 54 3.6 WNW 28 37 15 20 - - 0.8
25/08:30am 8.6 1.1 1.1 59 3.1 WNW 30 39 16 21 - - 0.8
25/08:00am 7.6 0.1 1.5 65 2.5 WNW 30 37 16 20 - - 0.8
25/07:30am 6.8 0.1 1.5 69 2.1 WNW 26 33 14 18 - - 0.8
25/07:00am 6.6 1.1 1.7 71 2.0 WNW 20 28 11 15 - - 0.8
25/06:30am 6.8 1.5 1.7 70 2.1 NW 19 22 10 12 - - 0.8
25/06:00am 7.2 1.3 1.7 68 2.2 NW 22 30 12 16 - - 0.8
25/05:30am 7.3 1.4 1.6 67 2.3 NW 22 30 12 16 - - 0.8
25/05:00am 7.5 0.4 1.6 66 2.4 WNW 28 35 15 19 - - 0.8
25/04:30am 7.5 0.8 1.4 65 2.5 WNW 26 37 14 20 - - 0.8
25/04:00am 7.8 2.7 1.0 62 2.7 WNW 17 28 9 15 - - 0.8
25/03:30am 7.8 3.5 1.0 62 2.7 NW 13 22 7 12 - - 0.8
25/03:00am 7.8 4.3 1.0 62 2.7 NW 9 17 5 9 - - 0.8
25/02:30am 8.1 2.7 1.3 62 2.8 NW 19 26 10 14 - - 0.8
25/02:00am 8.4 0.9 1.3 61 2.9 NW 30 39 16 21 - - 0.8
25/01:30am 9.2 0.6 0.4 54 3.5 WNW 35 44 19 24 - - 0.8
25/01:00am 9.4 1.5 1.1 56 3.4 WNW 32 43 17 23 - - 0.8
25/12:30am 9.5 1.9 0.4 53 3.7 WNW 30 44 16 24 - - 0.8
25/12:00am 9.8 0.5 0.9 54 3.6 WNW 39 54 21 29 - - 0.8
 
Date/Time
EST
Temp
°C
App
Temp
°C
Dew
Point
°C
Rel
Hum
%
Delta-T
°C
Wind Press
QNH
hPa
Press
MSL
hPa
Rain since
9am
mm
Dir  Spd
km/h
Gust
km/h
Spd
kts
Gust
kts
24/11:49pm 9.8 1.3 1.2 55 3.6 WNW 35 56 19 30 - - 0.8
24/11:30pm 9.7 0.8 0.6 53 3.7 WNW 37 46 20 25 - - 0.8
24/11:00pm 9.8 0.6 1.2 55 3.6 WNW 39 52 21 28 - - 0.8
24/10:30pm 9.9 0.2 0.8 53 3.7 WNW 41 52 22 28 - - 0.8
24/10:00pm 9.9 -0.1 1.3 55 3.6 WNW 43 63 23 34 - - 0.8
24/09:30pm 10.2 -1.0 1.6 55 3.6 WNW 50 76 27 41 - - 0.8
24/09:05pm 10.3 -0.2 1.7 55 3.6 WNW 46 67 25 36 - - 0.8
24/09:00pm 10.3 -0.1 1.9 56 3.5 WNW 46 61 25 33 - - 0.8
24/08:30pm 10.3 1.7 2.4 58 3.4 WNW 37 54 20 29 - - 0.8
24/08:27pm 10.3 2.0 2.4 58 3.4 WNW 35 54 19 29 - - 0.8
24/08:00pm 9.3 2.7 4.3 71 2.2 NW 28 39 15 21 - - 0.8
24/07:30pm 9.2 2.7 4.6 73 2.0 NW 28 37 15 20 - - 0.8
24/07:00pm 9.7 2.2 4.7 71 2.2 NW 33 43 18 23 - - 0.8
24/06:30pm 9.9 2.3 4.1 67 2.6 NW 33 43 18 23 - - 0.8
24/06:00pm 11.3 2.0 3.1 57 3.6 WNW 41 54 22 29 - - 0.8
24/05:30pm 11.8 2.6 3.3 56 3.8 WNW 41 57 22 31 - - 0.8
24/05:02pm 12.6 1.3 3.3 53 4.1 WNW 52 72 28 39 - - 0.8
24/05:00pm 12.9 1.2 3.6 53 4.2 WNW 54 72 29 39 - - 0.8
24/04:52pm 14.1 4.2 1.7 43 5.4 WNW 43 70 23 38 - - 0.8
24/04:30pm 14.6 6.6 1.5 41 5.7 WNW 33 48 18 26 - - 0.8
24/04:00pm 16.0 7.4 2.8 41 6.0 W 37 57 20 31 - - 0.8
24/03:30pm 16.3 6.2 0.4 34 6.9 WNW 43 63 23 34 - - 0.8
24/03:07pm 16.6 8.0 2.6 39 6.3 WNW 37 65 20 35 - - 0.8
24/03:00pm 16.4 7.8 2.4 39 6.3 WNW 37 52 20 28 - - 0.8
24/02:42pm 15.6 8.3 7.1 57 4.2 NW 35 54 19 29 - - 0.8
24/02:30pm 15.2 7.6 7.5 60 3.8 NW 37 48 20 26 - - 0.8
24/02:00pm 15.0 8.5 8.3 64 3.4 NW 32 43 17 23 - - 0.8
24/01:30pm 15.1 8.6 8.3 64 3.4 NW 32 43 17 23 - - 0.8
24/01:00pm 15.0 8.6 8.5 65 3.3 NW 32 43 17 23 - - 0.8
24/12:30pm 14.0 6.8 9.2 73 2.4 NW 37 50 20 27 - - 0.8
24/12:00pm 12.8 7.2 10.2 84 1.3 NW 30 37 16 20 - - 0.8
24/11:30am 12.5 3.9 8.0 74 2.2 WNW 43 56 23 30 - - 0.4
24/11:00am 16.7 5.4 7.1 53 4.8 WNW 56 74 30 40 - - 0.0
24/10:31am 17.2 6.2 6.7 50 5.2 WNW 54 74 29 40 - - 0.0
24/10:30am 17.2 5.8 6.7 50 5.2 WNW 56 74 30 40 - - 0.0
24/10:00am 16.9 8.5 7.5 54 4.7 NW 41 69 22 37 - - 0.0
24/09:35am 16.6 8.7 7.8 56 4.4 NW 39 57 21 31 - - 0.0
24/09:30am 16.4 8.4 7.6 56 4.4 NW 39 56 21 30 - - 0.0
24/09:09am 16.3 8.6 8.5 60 4.0 NW 39 59 21 32 - - 0.0
24/09:00am 16.0 7.9 8.5 61 3.8 NW 41 52 22 28 - - 0.0
24/08:32am 15.4 9.4 8.6 64 3.5 NW 30 50 16 27 - - 0.0
24/08:30am 15.3 9.3 8.5 64 3.4 NW 30 43 16 23 - - 0.0
24/08:00am 14.9 9.7 8.8 67 3.1 WNW 26 43 14 23 - - 0.0
24/07:30am 14.4 9.7 9.2 71 2.7 NW 24 35 13 19 - - 0.0
24/07:00am 14.2 9.3 9.8 75 2.3 NW 26 39 14 21 - - 0.0
24/06:30am 14.2 8.9 10.0 76 2.2 NW 28 41 15 22 - - 0.0
24/06:00am 14.3 8.7 10.3 77 2.1 NW 30 37 16 20 - - 0.0
24/05:30am 14.6 8.7 10.4 76 2.2 NW 32 43 17 23 - - 0.0
24/05:00am 14.2 9.0 10.4 78 2.0 NW 28 37 15 20 - - 0.0
24/04:41am 14.2 9.1 10.6 79 1.9 NW 28 41 15 22 - - 0.0
24/04:30am 13.1 10.1 10.5 84 1.4 NNW 17 20 9 11 - - 0.0
24/04:00am 12.3 9.9 10.2 87 1.1 NNE 13 17 7 9 - - 0.0
24/03:30am 12.1 9.2 9.8 86 1.2 N 15 19 8 10 - - 0.0
24/03:00am 12.1 9.2 9.7 85 1.2 N 15 17 8 9 - - 0.0
24/02:30am 12.6 9.0 10.0 84 1.3 N 19 24 10 13 - - 0.0
24/02:00am 12.9 10.1 10.1 83 1.4 N 15 20 8 11 - - 0.0
24/01:30am 12.9 11.4 10.4 85 1.3 NNE 9 11 5 6 - - 0.0
24/01:00am 12.9 10.6 10.3 84 1.3 NNW 13 15 7 8 - - 0.0
24/12:30am 12.6 8.6 10.3 86 1.2 NNW 22 28 12 15 - - 0.0
24/12:00am 12.4 9.6 8.7 78 1.8 N 13 17 7 9 - - 0.0
 
Date/Time
EST
Temp
°C
App
Temp
°C
Dew
Point
°C
Rel
Hum
%
Delta-T
°C
Wind Press
QNH
hPa
Press
MSL
hPa
Rain since
9am
mm
Dir  Spd
km/h
Gust
km/h
Spd
kts
Gust
kts
23/11:30pm 12.6 9.7 8.1 74 2.2 N 13 15 7 8 - - 0.0
23/11:00pm 13.8 10.6 8.4 70 2.7 N 15 20 8 11 - - 0.0
23/10:30pm 14.0 11.2 8.4 69 2.8 NNW 13 19 7 10 - - 0.0
23/10:00pm 14.5 10.4 8.7 68 2.9 NW 20 28 11 15 - - 0.0
23/09:30pm 14.4 9.9 8.4 67 3.0 NW 22 26 12 14 - - 0.0
23/09:00pm 14.0 11.2 8.4 69 2.8 N 13 15 7 8 - - 0.0
23/08:30pm 14.7 11.7 9.1 69 2.9 N 15 20 8 11 - - 0.0
23/08:00pm 15.1 11.2 8.8 66 3.2 NNW 19 24 10 13 - - 0.0
23/07:30pm 15.4 10.6 8.9 65 3.3 NNW 24 32 13 17 - - 0.0
23/07:00pm 15.7 9.6 8.4 62 3.7 NNW 30 35 16 19 - - 0.0
23/06:30pm 15.7 9.2 8.0 60 3.9 NNW 32 43 17 23 - - 0.0
23/06:00pm 15.6 10.5 7.6 59 4.0 NNW 24 32 13 17 - - 0.0
23/05:30pm 15.1 11.5 8.3 64 3.4 NNW 17 20 9 11 - - 0.0
23/05:00pm 15.3 12.6 8.8 65 3.3 N 13 17 7 9 - - 0.0
23/04:30pm 15.9 12.3 8.2 60 3.9 NNW 17 24 9 13 - - 0.0
23/04:00pm 16.0 11.9 8.0 59 4.0 NW 19 24 10 13 - - 0.0
23/03:30pm 16.1 12.1 8.1 59 4.0 NW 19 26 10 14 - - 0.0
23/03:00pm 16.2 9.6 7.7 57 4.3 NW 32 39 17 21 - - 0.0
23/02:30pm 16.7 8.7 7.4 54 4.7 NW 39 50 21 27 - - 0.0
23/02:00pm 17.2 10.4 7.5 53 4.9 NW 33 52 18 28 - - 0.0
23/01:30pm 16.8 9.1 7.2 53 4.8 NW 37 50 20 27 - - 0.0
23/01:00pm 16.7 9.9 7.1 53 4.8 NW 32 46 17 25 - - 0.0
23/12:45pm 16.4 9.2 7.6 56 4.4 NW 35 56 19 30 - - 0.0
23/12:30pm 16.4 8.3 7.1 54 4.6 NW 39 56 21 30 - - 0.0
23/12:13pm 16.3 7.5 7.3 55 4.5 NW 43 61 23 33 - - 0.0
23/12:00pm 15.3 7.2 7.1 58 4.0 NW 39 52 21 28 - - 0.0
23/11:36am 15.3 8.4 7.3 59 4.0 NW 33 54 18 29 - - 0.0
23/11:30am 15.4 9.1 7.2 58 4.1 WNW 30 43 16 23 - - 0.0
23/11:00am 14.5 8.6 7.3 62 3.5 NW 28 37 15 20 - - 0.0
23/10:30am 14.5 9.1 8.0 65 3.2 NW 26 35 14 19 - - 0.0
23/10:00am 14.7 8.5 7.7 63 3.5 NW 30 37 16 20 - - 0.0
23/09:30am 14.0 9.4 8.2 68 2.9 NW 22 33 12 18 - - 0.0
23/09:00am 13.1 8.8 8.0 71 2.5 NW 20 28 11 15 - - 0.0
23/08:30am 12.5 9.1 7.8 73 2.3 NW 15 20 8 11 - - 0.0
23/08:00am 12.0 9.0 7.7 75 2.1 WNW 13 19 7 10 - - 0.0
23/07:30am 10.3 7.6 7.2 81 1.5 WNW 11 15 6 8 - - 0.0
23/07:00am 10.6 6.7 7.1 79 1.7 NW 17 22 9 12 - - 0.0
23/06:30am 10.8 6.9 7.1 78 1.8 NW 17 20 9 11 - - 0.0
23/06:00am 10.9 7.0 7.0 77 1.9 NW 17 20 9 11 - - 0.0
23/05:30am 11.1 8.0 7.2 77 1.9 NW 13 19 7 10 - - 0.0
23/05:00am 11.4 7.9 7.1 75 2.1 NW 15 20 8 11 - - 0.0
23/04:30am 11.5 8.3 7.0 74 2.2 NW 13 17 7 9 - - 0.0
23/04:00am 11.6 8.4 6.9 73 2.2 NW 13 17 7 9 - - 0.0
23/03:30am 11.8 7.3 6.9 72 2.3 WNW 20 24 11 13 - - 0.0
23/03:00am 11.8 9.7 6.7 71 2.4 NW 7 13 4 7 - - 0.0
23/02:30am 12.0 7.7 6.9 71 2.4 WNW 19 22 10 12 - - 0.0
23/02:00am 12.3 8.0 7.0 70 2.5 NW 19 22 10 12 - - 0.0
23/01:30am 12.5 8.9 6.8 68 2.7 NW 15 20 8 11 - - 0.0
23/01:00am 12.7 8.2 6.3 65 3.0 WNW 19 24 10 13 - - 0.0
23/12:30am 13.0 10.1 6.4 64 3.1 NW 11 15 6 8 - - 0.0
23/12:00am 13.1 8.9 5.8 61 3.4 WNW 17 24 9 13 - - 0.0
 
Date/Time
EST
Temp
°C
App
Temp
°C
Dew
Point
°C
Rel
Hum
%
Delta-T
°C
Wind Press
QNH
hPa
Press
MSL
hPa
Rain since
9am
mm
Dir  Spd
km/h
Gust
km/h
Spd
kts
Gust
kts
22/11:30pm 13.3 10.2 5.7 60 3.6 NW 11 17 6 9 - - 0.0
22/11:00pm 13.5 10.4 5.7 59 3.7 NW 11 17 6 9 - - 0.0
22/10:30pm 13.9 10.7 5.3 56 4.0 NW 11 20 6 11 - - 0.0

Other Formats:

Comma delimited format used in spreadsheet applications
http://www.bom.gov.au/fwo/IDN60801/IDN60801.94774.axf

JavaScript Object Notation format (JSON) in row-major order
http://www.bom.gov.au/fwo/IDN60801/IDN60801.94774.json